Terminal Aerodrome Forecast
Issued by NWS Newport/Morehead City, NC

Home | Current Version | Previous Version | Text Only | Print | Product List | Glossary Off
Versions: 1 2 3 4 5 6 7 8 9 10 11 12 13 14 15 16 17 18 19 20 21

000
FTUS42 KMHX 181135
TAFEWN
TAF
KEWN 181135Z 1812/1912 02009KT P6SM FEW040 SCT250
     FM190200 06004KT P6SM BKN120
     FM190600 05004KT P6SM BKN050
     FM190900 06003KT P6SM BKN025=

USA.gov is the U.S. government's official web portal to all federal, state and local government web resources and services.